Time;durP1;ratioP1;P1;durP2;ratioP2;P2;SDS_P1;SDS_P2;PMS_P1;PMS_P2;Temp;Humidity;BMP_temperature;BMP_pressure;BME280_temperature;BME280_humidity;BME280_pressure;Samples;Min_cycle;Max_cycle;Signal;HPM_P1;HPM_P2
2022/09/29 00:00:13;;;;;;;3.35;1.08;;;12.90;76.00;;;;;;4978209;28;20393;-79
2022/09/29 00:02:39;;;;;;;4.70;1.10;;;12.90;75.90;;;;;;5005497;28;20065;-78
2022/09/29 00:05:05;;;;;;;3.53;1.23;;;12.80;76.00;;;;;;5012100;28;20022;-79
2022/09/29 00:07:31;;;;;;;4.07;1.08;;;12.90;76.10;;;;;;5001512;28;20019;-79
2022/09/29 00:09:57;;;;;;;4.82;1.20;;;12.90;76.10;;;;;;4977691;28;20038;-79
2022/09/29 00:12:23;;;;;;;7.05;1.45;;;12.90;76.20;;;;;;4977477;28;20061;-78
2022/09/29 00:14:49;;;;;;;1.95;0.95;;;12.90;76.10;;;;;;4977569;28;20035;-78
2022/09/29 00:17:15;;;;;;;2.38;1.17;;;12.90;76.10;;;;;;4976066;28;20034;-78
2022/09/29 00:19:40;;;;;;;2.22;1.25;;;12.80;76.20;;;;;;4978064;28;20106;-79
2022/09/29 00:22:06;;;;;;;6.30;1.25;;;12.80;76.10;;;;;;4980442;28;20026;-78
2022/09/29 00:24:33;;;;;;;3.08;1.42;;;12.80;76.20;;;;;;4991259;28;20034;-79
2022/09/29 00:26:59;;;;;;;5.68;1.80;;;12.80;76.20;;;;;;4976930;28;20034;-78
2022/09/29 00:29:25;;;;;;;1.80;0.93;;;12.80;76.40;;;;;;4976991;28;20081;-78
2022/09/29 00:31:51;;;;;;;6.70;1.45;;;12.80;76.10;;;;;;4977158;28;20022;-79
2022/09/29 00:34:17;;;;;;;3.05;1.05;;;12.80;76.20;;;;;;4977067;28;20545;-79
2022/09/29 00:36:43;;;;;;;5.28;1.05;;;12.80;76.20;;;;;;4977188;28;20065;-79
2022/09/29 00:39:08;;;;;;;4.10;1.10;;;12.70;76.30;;;;;;4991983;28;20049;-79
2022/09/29 00:41:36;;;;;;;1.48;1.02;;;12.70;76.40;;;;;;4977100;28;20386;-78
2022/09/29 00:44:06;;;;;;;6.03;1.52;;;12.70;76.30;;;;;;4977107;28;20106;-79
2022/09/29 00:46:35;;;;;;;3.05;1.15;;;12.60;76.50;;;;;;4976101;28;20026;-78
2022/09/29 00:49:25;;;;;;;8.10;1.80;;;12.70;76.60;;;;;;4976938;28;20031;-79
2022/09/29 00:51:55;;;;;;;2.80;1.25;;;12.70;76.50;;;;;;4977000;28;20097;-78
2022/09/29 00:54:22;;;;;;;3.13;0.82;;;12.70;76.40;;;;;;4976775;28;20035;-79
2022/09/29 00:56:50;;;;;;;1.80;1.10;;;12.70;76.30;;;;;;4975720;28;20176;-78
2022/09/29 00:59:22;;;;;;;3.78;1.05;;;12.70;76.50;;;;;;4985803;28;20075;-79
2022/09/29 01:01:49;;;;;;;6.47;1.23;;;12.60;76.60;;;;;;4976789;28;20046;-78
2022/09/29 01:04:21;;;;;;;2.67;1.00;;;12.60;76.70;;;;;;4976144;28;20136;-78
2022/09/29 01:06:52;;;;;;;3.05;1.00;;;12.60;76.60;;;;;;4976270;28;20497;-78
2022/09/29 01:09:22;;;;;;;4.55;1.42;;;12.60;76.60;;;;;;4991512;28;20027;-79
2022/09/29 01:11:48;;;;;;;;;;;12.60;76.60;;;;;;4977411;28;20497;-78
2022/09/29 01:14:15;;;;;;;2.95;1.10;;;12.60;76.90;;;;;;4976822;28;19906;-78
2022/09/29 01:16:42;;;;;;;1.95;1.13;;;12.60;76.80;;;;;;4976629;28;20106;-79
2022/09/29 01:19:16;;;;;;;2.05;1.27;;;12.60;76.80;;;;;;4976555;28;20398;-79
2022/09/29 01:21:53;;;;;;;6.78;1.25;;;12.60;77.20;;;;;;4976517;28;20580;-79
2022/09/29 01:24:41;;;;;;;2.72;1.02;;;12.60;77.20;;;;;;4984688;28;20027;-78
2022/09/29 01:27:19;;;;;;;2.78;1.15;;;12.70;77.10;;;;;;5000272;28;20042;-78
2022/09/29 01:30:00;;;;;;;1.55;1.13;;;12.70;77.20;;;;;;4995791;28;20485;-78
2022/09/29 01:32:35;;;;;;;3.58;1.55;;;12.70;77.20;;;;;;4995312;28;20053;-78
2022/09/29 01:35:09;;;;;;;1.10;0.80;;;12.70;77.40;;;;;;4995853;28;20453;-78
2022/09/29 01:38:04;;;;;;;1.42;0.93;;;12.60;77.40;;;;;;4997958;28;20039;-79
2022/09/29 01:40:57;;;;;;;4.18;1.25;;;12.60;77.70;;;;;;4985342;28;20406;-79
2022/09/29 01:43:24;;;;;;;6.07;1.23;;;12.60;77.60;;;;;;4980648;28;20636;-79
2022/09/29 01:46:00;;;;;;;3.20;1.40;;;12.70;77.80;;;;;;4980264;28;20023;-78
2022/09/29 01:48:31;;;;;;;7.55;1.30;;;12.70;78.00;;;;;;4980354;28;20022;-79
2022/09/29 01:51:03;;;;;;;3.20;1.17;;;12.70;78.10;;;;;;4980113;28;20078;-79
2022/09/29 01:53:52;;;;;;;6.75;1.55;;;12.70;78.10;;;;;;4980513;28;20031;-79
2022/09/29 01:56:23;;;;;;;1.45;0.98;;;12.70;78.30;;;;;;4980193;28;20048;-79
2022/09/29 01:58:53;;;;;;;3.22;1.08;;;12.80;78.20;;;;;;4979250;28;20413;-79
2022/09/29 02:01:23;;;;;;;3.15;1.00;;;12.80;78.50;;;;;;4979927;28;20043;-79
2022/09/29 02:04:08;;;;;;;9.95;1.55;;;12.80;78.50;;;;;;4980256;28;20474;-79
2022/09/29 02:06:42;;;;;;;5.78;1.55;;;12.80;78.60;;;;;;4978531;28;20023;-79
2022/09/29 02:09:15;;;;;;;4.38;0.80;;;12.80;78.80;;;;;;4979913;28;20023;-79
2022/09/29 02:11:41;;;;;;;5.20;1.10;;;12.80;78.90;;;;;;4994171;28;20462;-79
2022/09/29 02:14:07;;;;;;;1.95;1.13;;;12.80;78.90;;;;;;4979722;28;20038;-79
2022/09/29 02:16:42;;;;;;;1.95;1.27;;;12.80;79.10;;;;;;4993733;28;20489;-79
2022/09/29 02:19:18;;;;;;;4.63;0.95;;;12.80;78.90;;;;;;4980005;28;20030;-79
2022/09/29 02:21:44;;;;;;;2.35;1.08;;;12.80;78.90;;;;;;4994528;28;20094;-79
2022/09/29 02:24:11;;;;;;;1.90;0.85;;;12.80;79.10;;;;;;4999055;28;20049;-79
2022/09/29 02:26:37;;;;;;;1.70;1.08;;;12.80;79.10;;;;;;4988589;28;20092;-79
2022/09/29 02:29:05;;;;;;;2.67;1.00;;;12.80;79.20;;;;;;4979764;28;20023;-78
2022/09/29 02:31:32;;;;;;;3.80;1.10;;;12.80;79.20;;;;;;4994803;28;20042;-79
2022/09/29 02:34:00;;;;;;;2.22;1.30;;;12.70;79.40;;;;;;4979973;28;20113;-79
2022/09/29 02:36:35;;;;;;;1.92;1.20;;;12.70;79.50;;;;;;4978483;28;20371;-78
2022/09/29 02:39:19;;;;;;;2.15;0.93;;;12.70;79.40;;;;;;4979345;28;20031;-79
2022/09/29 02:41:53;;;;;;;3.55;1.25;;;12.60;79.50;;;;;;4979245;28;20027;-78
2022/09/29 02:44:28;;;;;;;2.75;1.33;;;12.50;79.60;;;;;;4979288;28;20027;-79
2022/09/29 02:47:20;;;;;;;3.53;1.50;;;12.50;79.60;;;;;;4979117;28;20023;-78
2022/09/29 02:49:51;;;;;;;3.28;1.10;;;12.50;79.60;;;;;;4979320;28;20038;-78
2022/09/29 02:52:33;;;;;;;6.45;1.60;;;12.50;79.50;;;;;;4977508;28;20047;-79
2022/09/29 02:55:23;;;;;;;6.05;1.20;;;12.50;79.50;;;;;;4977939;28;20031;-79
2022/09/29 02:58:00;;;;;;;6.00;1.23;;;12.40;79.50;;;;;;4978993;28;20019;-79
2022/09/29 03:00:27;;;;;;;2.58;1.40;;;12.50;79.30;;;;;;4978955;28;20090;-79
2022/09/29 03:02:52;;;;;;;2.80;1.17;;;12.50;79.30;;;;;;4979201;28;20026;-79
2022/09/29 03:05:21;;;;;;;2.10;1.48;;;12.50;79.30;;;;;;4993701;28;20037;-79
2022/09/29 03:07:47;;;;;;;7.70;1.48;;;12.50;79.30;;;;;;4977493;28;20151;-79
2022/09/29 03:10:14;;;;;;;5.38;1.75;;;12.50;79.20;;;;;;4992704;28;20038;-79
2022/09/29 03:12:40;;;;;;;2.60;1.10;;;12.50;79.30;;;;;;4978731;28;20041;-79
2022/09/29 03:15:07;;;;;;;5.90;1.90;;;12.50;79.30;;;;;;4993702;28;20031;-78
2022/09/29 03:17:33;;;;;;;2.97;1.17;;;12.50;79.30;;;;;;4978653;28;20037;-79
2022/09/29 03:19:58;;;;;;;2.10;1.45;;;12.50;79.20;;;;;;4979072;28;20407;-79
2022/09/29 03:22:24;;;;;;;3.45;1.48;;;12.50;79.20;;;;;;4984143;28;20037;-78
2022/09/29 03:24:50;;;;;;;4.72;1.50;;;12.50;79.00;;;;;;4997957;28;20054;-79
2022/09/29 03:27:16;;;;;;;1.90;1.42;;;12.50;78.90;;;;;;4979882;28;20034;-78
2022/09/29 03:29:42;;;;;;;6.30;1.50;;;12.50;79.10;;;;;;4977334;28;20057;-79
2022/09/29 03:32:08;;;;;;;5.00;1.45;;;12.50;79.00;;;;;;4993141;28;20509;-78
2022/09/29 03:34:34;;;;;;;4.95;1.48;;;12.50;79.10;;;;;;4978258;28;20049;-79
2022/09/29 03:37:00;;;;;;;3.55;1.25;;;12.50;79.00;;;;;;4978553;28;20051;-78
2022/09/29 03:39:26;;;;;;;3.55;1.58;;;12.40;79.00;;;;;;4978730;28;20062;-79
2022/09/29 03:41:52;;;;;;;2.67;1.77;;;12.50;78.70;;;;;;4976902;28;20031;-79
2022/09/29 03:44:18;;;;;;;3.85;1.40;;;12.40;78.90;;;;;;4992991;28;20041;-79
2022/09/29 03:46:45;;;;;;;9.52;2.00;;;12.30;79.00;;;;;;4977000;28;20390;-79
2022/09/29 03:49:11;;;;;;;2.60;1.50;;;12.30;78.80;;;;;;4978039;28;20135;-78
2022/09/29 03:51:37;;;;;;;1.65;1.30;;;12.30;78.80;;;;;;4978487;28;20059;-79
2022/09/29 03:54:03;;;;;;;4.93;1.42;;;12.30;78.70;;;;;;4977929;28;20054;-79
2022/09/29 03:56:29;;;;;;;6.65;1.73;;;12.30;78.80;;;;;;4992643;28;20371;-79
2022/09/29 03:58:55;;;;;;;7.30;1.73;;;12.30;79.00;;;;;;4977999;28;20069;-78
2022/09/29 04:01:21;;;;;;;5.78;1.98;;;12.20;78.90;;;;;;4977349;28;20121;-79
2022/09/29 04:03:46;;;;;;;5.20;1.52;;;12.20;78.90;;;;;;4976029;28;20086;-79
2022/09/29 04:06:14;;;;;;;4.80;1.83;;;12.20;78.70;;;;;;4977759;28;20031;-78
2022/09/29 04:08:40;;;;;;;3.40;1.35;;;12.20;78.70;;;;;;4978259;28;20449;-79
2022/09/29 04:11:06;;;;;;;9.02;1.63;;;12.10;78.80;;;;;;4977590;28;20029;-79
2022/09/29 04:13:32;;;;;;;4.13;1.92;;;12.10;78.90;;;;;;4977590;28;20023;-79
2022/09/29 04:16:03;;;;;;;3.95;1.65;;;12.10;78.90;;;;;;4977849;28;20501;-79
2022/09/29 04:18:28;;;;;;;1.65;1.27;;;12.10;78.80;;;;;;4977637;28;20037;-78
2022/09/29 04:20:58;;;;;;;4.90;1.60;;;12.00;78.90;;;;;;4977820;28;20127;-79
2022/09/29 04:23:24;;;;;;;4.22;1.52;;;12.00;79.10;;;;;;4989955;28;20576;-79
2022/09/29 04:25:49;;;;;;;3.60;1.85;;;12.00;79.00;;;;;;4996564;28;20096;-79
2022/09/29 04:28:15;;;;;;;3.53;1.75;;;12.10;79.10;;;;;;4996735;28;20026;-78
2022/09/29 04:30:40;;;;;;;5.10;1.90;;;12.10;79.00;;;;;;4988276;28;20118;-79
2022/09/29 04:33:06;;;;;;;6.40;1.65;;;12.10;79.10;;;;;;4977308;28;20031;-82
2022/09/29 04:35:32;;;;;;;4.07;1.80;;;12.10;79.20;;;;;;4977364;28;20554;-79
2022/09/29 04:37:58;;;;;;;4.28;1.45;;;12.10;79.00;;;;;;4977066;28;20542;-79
2022/09/29 04:40:24;;;;;;;3.45;1.58;;;12.20;78.90;;;;;;4977035;28;20102;-78
2022/09/29 04:42:50;;;;;;;3.28;1.30;;;12.20;78.90;;;;;;4977083;28;20085;-79
2022/09/29 04:45:16;;;;;;;2.47;1.70;;;12.20;78.80;;;;;;4975201;28;20034;-78
2022/09/29 04:47:42;;;;;;;5.00;2.00;;;12.10;78.90;;;;;;4976755;28;20030;-79
2022/09/29 04:50:08;;;;;;;2.63;1.33;;;12.20;78.70;;;;;;4977211;28;20389;-79
2022/09/29 04:52:35;;;;;;;2.88;1.92;;;12.10;78.80;;;;;;4976807;28;20042;-80
2022/09/29 04:55:01;;;;;;;2.13;1.55;;;12.10;78.70;;;;;;5017541;28;20037;-81
2022/09/29 04:57:29;;;;;;;4.60;1.95;;;12.10;78.70;;;;;;5015883;28;20057;-84
2022/09/29 04:59:55;;;;;;;5.90;2.00;;;12.10;78.70;;;;;;5015439;28;20552;-81
2022/09/29 05:02:24;;;;;;;2.97;1.73;;;12.10;78.70;;;;;;4999945;28;20137;-85
2022/09/29 05:04:50;;;;;;;5.07;1.50;;;12.10;78.60;;;;;;4991931;28;20549;-79
2022/09/29 05:07:15;;;;;;;4.25;1.45;;;12.10;78.60;;;;;;4986562;28;20034;-80
2022/09/29 05:09:41;;;;;;;4.90;1.90;;;12.00;78.60;;;;;;4977378;28;20014;-80
2022/09/29 05:12:06;;;;;;;7.30;1.55;;;12.00;78.50;;;;;;4991436;28;20037;-80
2022/09/29 05:14:34;;;;;;;5.30;1.42;;;12.00;78.60;;;;;;4985760;28;20035;-81
2022/09/29 05:17:00;;;;;;;1.98;1.52;;;12.00;78.70;;;;;;4985101;28;20152;-83
2022/09/29 05:19:26;;;;;;;2.85;1.48;;;12.00;78.60;;;;;;4996455;28;20030;-81
2022/09/29 05:21:51;;;;;;;7.22;1.98;;;12.00;78.60;;;;;;4993754;28;20105;-81
2022/09/29 05:24:17;;;;;;;3.30;1.85;;;12.00;78.60;;;;;;5001693;28;20101;-78
2022/09/29 05:26:43;;;;;;;3.45;1.60;;;12.00;78.60;;;;;;4995287;28;20057;-77
2022/09/29 05:29:09;;;;;;;2.25;1.70;;;12.00;78.60;;;;;;4995040;28;20022;-78
2022/09/29 05:31:35;;;;;;;4.88;1.75;;;12.00;78.50;;;;;;4996513;28;20037;-78
2022/09/29 05:34:01;;;;;;;2.47;1.60;;;12.00;78.40;;;;;;4982698;28;20033;-79
2022/09/29 05:36:27;;;;;;;7.10;2.17;;;12.00;78.60;;;;;;4980999;28;20022;-79
2022/09/29 05:38:52;;;;;;;4.15;1.90;;;12.00;78.40;;;;;;4996091;28;20018;-78
2022/09/29 05:41:21;;;;;;;4.97;2.00;;;12.00;78.70;;;;;;4992595;28;20038;-77
2022/09/29 05:43:54;;;;;;;4.53;1.98;;;12.00;78.70;;;;;;4995145;28;20484;-77
2022/09/29 05:46:21;;;;;;;3.97;1.75;;;11.90;78.80;;;;;;4996977;28;20408;-76
2022/09/29 05:48:52;;;;;;;3.33;2.10;;;12.00;78.70;;;;;;4979006;28;20104;-79
2022/09/29 05:51:23;;;;;;;4.35;1.52;;;12.00;78.70;;;;;;4976735;28;20174;-77
2022/09/29 05:53:48;;;;;;;;;;;12.00;78.50;;;;;;4976180;28;20087;-78
2022/09/29 05:56:18;;;;;;;6.57;1.90;;;11.90;78.70;;;;;;4975792;28;19934;-77
2022/09/29 05:58:44;;;;;;;2.13;1.60;;;12.00;78.70;;;;;;4975590;28;20023;-77
2022/09/29 06:01:15;;;;;;;3.05;1.70;;;11.90;78.70;;;;;;4975815;28;20069;-77
2022/09/29 06:03:41;;;;;;;4.45;1.75;;;11.90;78.80;;;;;;4975887;28;20046;-77
2022/09/29 06:06:09;;;;;;;6.03;1.83;;;11.90;78.80;;;;;;4975095;28;20027;-77
2022/09/29 06:08:35;;;;;;;2.95;1.63;;;11.80;79.00;;;;;;4973641;28;20493;-77
2022/09/29 06:11:16;;;;;;;3.15;1.70;;;11.90;79.10;;;;;;4979647;28;20889;-77
2022/09/29 06:13:47;;;;;;;6.70;2.20;;;11.90;79.10;;;;;;4975580;28;20039;-76
2022/09/29 06:16:14;;;;;;;6.25;2.05;;;11.90;79.30;;;;;;4974165;28;20035;-76
2022/09/29 06:18:40;;;;;;;2.35;1.60;;;11.90;79.30;;;;;;4976193;28;20034;-75
2022/09/29 06:21:09;;;;;;;4.63;2.33;;;11.90;79.20;;;;;;4991368;28;20115;-77
2022/09/29 06:23:35;;;;;;;7.70;2.05;;;11.90;79.50;;;;;;4981679;28;20058;-76
2022/09/29 06:26:08;;;;;;;6.88;2.08;;;11.90;79.60;;;;;;4978818;28;20026;-77
2022/09/29 06:28:34;;;;;;;5.43;1.70;;;12.00;79.70;;;;;;4978405;28;20038;-77
2022/09/29 06:31:05;;;;;;;4.57;1.63;;;12.00;79.40;;;;;;4979927;28;20033;-77
2022/09/29 06:33:33;;;;;;;9.10;1.95;;;12.00;79.30;;;;;;4994677;28;20035;-77
2022/09/29 06:39:07;;;;;;;3.15;1.45;;;12.10;79.20;;;;;;4985995;28;20516;-77
2022/09/29 06:41:34;;;;;;;4.15;1.70;;;12.10;79.00;;;;;;4994788;28;20037;-77
2022/09/29 06:44:00;;;;;;;2.55;1.55;;;12.10;79.00;;;;;;4994461;28;20115;-77
2022/09/29 06:46:26;;;;;;;3.72;1.90;;;12.00;79.00;;;;;;4982721;28;20027;-77
2022/09/29 06:48:54;;;;;;;5.43;1.48;;;12.00;79.00;;;;;;4979610;28;20037;-77
2022/09/29 06:51:22;;;;;;;3.25;1.65;;;12.00;79.10;;;;;;4979566;28;20469;-78
2022/09/29 06:53:49;;;;;;;3.80;1.50;;;12.00;79.20;;;;;;4979857;28;20397;-77
2022/09/29 06:56:15;;;;;;;4.75;2.00;;;12.00;79.10;;;;;;4978532;28;20065;-77
2022/09/29 06:58:41;;;;;;;2.90;1.85;;;12.10;79.10;;;;;;4979409;28;20045;-77
2022/09/29 07:01:07;;;;;;;3.92;1.67;;;12.10;79.00;;;;;;4978100;28;20138;-76
2022/09/29 07:03:34;;;;;;;3.42;1.40;;;12.20;78.90;;;;;;4979865;28;20114;-76
2022/09/29 07:06:08;;;;;;;3.58;1.45;;;12.20;78.60;;;;;;4994226;28;20057;-77
2022/09/29 07:08:35;;;;;;;9.10;1.70;;;12.20;78.80;;;;;;4977932;28;20023;-77
2022/09/29 07:11:02;;;;;;;2.70;1.40;;;12.10;78.80;;;;;;4987179;28;20508;-78
2022/09/29 07:13:28;;;;;;;4.03;1.75;;;12.10;78.70;;;;;;4979962;28;20034;-77
2022/09/29 07:15:54;;;;;;;3.60;1.67;;;12.30;78.40;;;;;;4977682;28;20030;-78
2022/09/29 07:18:20;;;;;;;3.40;1.58;;;12.30;78.30;;;;;;4977862;28;20027;-77
2022/09/29 07:20:45;;;;;;;2.90;1.35;;;12.60;77.90;;;;;;4977729;28;20433;-77
2022/09/29 07:23:12;;;;;;;4.25;1.98;;;12.80;77.50;;;;;;4997130;28;20057;-77
2022/09/29 07:25:38;;;;;;;6.47;2.10;;;12.90;76.90;;;;;;4979053;28;20030;-77
2022/09/29 07:28:04;;;;;;;6.60;1.88;;;13.00;76.70;;;;;;4978953;28;20019;-78
2022/09/29 07:30:30;;;;;;;2.33;1.50;;;13.20;76.20;;;;;;4978846;28;20023;-78
2022/09/29 07:32:56;;;;;;;2.83;1.60;;;13.40;75.60;;;;;;4979188;28;20397;-78
2022/09/29 07:35:23;;;;;;;4.45;1.60;;;13.70;75.00;;;;;;4977628;28;20062;-77
2022/09/29 07:37:53;;;;;;;4.78;1.88;;;13.90;74.20;;;;;;4977453;28;20117;-76
2022/09/29 07:40:21;;;;;;;6.95;1.90;;;14.10;73.70;;;;;;4979125;28;20414;-78
2022/09/29 07:42:47;;;;;;;2.38;1.60;;;14.30;73.10;;;;;;4993747;28;20035;-79
2022/09/29 07:45:12;;;;;;;3.08;1.73;;;14.50;72.60;;;;;;4978530;28;20033;-78
2022/09/29 07:47:38;;;;;;;4.32;1.60;;;14.60;72.30;;;;;;4978888;28;20031;-77
2022/09/29 07:50:04;;;;;;;4.40;1.70;;;14.70;72.00;;;;;;4978656;28;20058;-77
2022/09/29 07:52:30;;;;;;;4.88;2.17;;;14.80;72.10;;;;;;4978178;28;20059;-77
2022/09/29 07:54:56;;;;;;;3.03;1.67;;;14.60;72.40;;;;;;4977253;28;20501;-77
2022/09/29 07:57:22;;;;;;;4.53;1.60;;;14.20;73.60;;;;;;4993623;28;20520;-78
2022/09/29 07:59:47;;;;;;;2.13;1.40;;;13.80;74.50;;;;;;4993452;28;20113;-77
2022/09/29 08:02:13;;;;;;;3.13;1.60;;;13.70;75.30;;;;;;4978044;28;20078;-77
2022/09/29 08:04:39;;;;;;;3.22;1.60;;;13.60;75.70;;;;;;4976560;28;20034;-77
2022/09/29 08:07:05;;;;;;;3.28;1.55;;;13.50;76.40;;;;;;4978292;28;20029;-77
2022/09/29 08:09:31;;;;;;;3.92;1.45;;;13.40;76.80;;;;;;4993270;28;20061;-78
2022/09/29 08:11:57;;;;;;;4.30;1.70;;;13.40;77.40;;;;;;4993260;28;20472;-77
2022/09/29 08:14:22;;;;;;;2.65;1.52;;;13.50;78.00;;;;;;4981668;28;20435;-78
2022/09/29 08:16:48;;;;;;;6.85;1.70;;;13.60;77.60;;;;;;4978305;28;20019;-77
2022/09/29 08:19:14;;;;;;;5.72;1.73;;;13.70;77.60;;;;;;4978028;28;20117;-78
2022/09/29 08:21:39;;;;;;;3.75;1.65;;;13.70;77.70;;;;;;4992575;28;20023;-78
2022/09/29 08:24:06;;;;;;;3.80;1.90;;;13.70;77.70;;;;;;4996759;28;20477;-77
2022/09/29 08:26:34;;;;;;;6.45;1.67;;;13.70;78.10;;;;;;4987717;28;20050;-77
2022/09/29 08:29:01;;;;;;;3.30;1.77;;;13.70;77.80;;;;;;4977932;28;20022;-78
2022/09/29 08:31:26;;;;;;;4.03;1.58;;;13.70;78.40;;;;;;4977811;28;20497;-77
2022/09/29 08:33:52;;;;;;;4.28;1.60;;;13.80;78.10;;;;;;4977667;28;20106;-78
2022/09/29 08:36:19;;;;;;;3.55;1.48;;;13.90;78.00;;;;;;4992326;28;20410;-77
2022/09/29 08:38:47;;;;;;;4.75;1.63;;;14.00;77.50;;;;;;4977740;28;20066;-77
2022/09/29 08:41:21;;;;;;;3.92;1.23;;;14.10;77.40;;;;;;4991634;28;20030;-77
2022/09/29 08:43:49;;;;;;;6.72;1.50;;;14.20;77.10;;;;;;4988384;28;20035;-77
2022/09/29 08:46:29;;;;;;;3.55;1.17;;;14.40;77.00;;;;;;4977078;28;20027;-77
2022/09/29 08:48:58;;;;;;;2.95;1.25;;;14.30;76.60;;;;;;4977773;28;20022;-78
2022/09/29 08:51:41;;;;;;;5.00;1.20;;;14.40;76.80;;;;;;4976026;28;20049;-78
2022/09/29 08:54:21;;;;;;;4.97;1.08;;;14.30;76.90;;;;;;4977439;28;20038;-78
2022/09/29 08:56:47;;;;;;;6.40;1.50;;;14.30;76.90;;;;;;4977467;28;20047;-77
2022/09/29 08:59:12;;;;;;;2.10;1.00;;;14.20;77.40;;;;;;4977807;28;20162;-77
2022/09/29 09:01:50;;;;;;;3.40;1.30;;;14.20;77.30;;;;;;4977157;28;20029;-77
2022/09/29 09:04:30;;;;;;;6.35;1.42;;;14.10;77.20;;;;;;4977213;28;20536;-77
2022/09/29 09:07:10;;;;;;;2.83;1.10;;;14.10;77.30;;;;;;4977612;28;20026;-77
2022/09/29 09:10:03;;;;;;;3.08;1.17;;;14.20;77.20;;;;;;4977858;28;20041;-78
2022/09/29 09:12:58;;;;;;;2.95;1.38;;;14.20;77.20;;;;;;4977217;28;20039;-77
2022/09/29 09:15:45;;;;;;;4.15;2.78;;;14.40;77.60;;;;;;4977225;28;20115;-78
2022/09/29 09:18:23;;;;;;;3.38;1.23;;;14.50;77.00;;;;;;4976981;28;20031;-77
2022/09/29 09:20:55;;;;;;;1.58;0.95;;;14.70;76.30;;;;;;4975801;28;20037;-77
2022/09/29 09:23:27;;;;;;;3.05;1.10;;;14.80;76.20;;;;;;4989956;28;20034;-78
2022/09/29 09:26:02;;;;;;;2.95;0.90;;;14.90;75.80;;;;;;4985258;28;20397;-78
2022/09/29 09:28:40;;;;;;;3.33;1.17;;;15.00;75.90;;;;;;4976999;28;20603;-77
2022/09/29 09:31:16;;;;;;;5.22;1.10;;;15.20;75.40;;;;;;4991497;28;20044;-78
2022/09/29 09:33:55;;;;;;;2.00;0.60;;;15.50;74.90;;;;;;4976885;28;20030;-77
2022/09/29 09:36:48;;;;;;;5.72;1.17;;;15.70;74.60;;;;;;4991628;28;20027;-78
2022/09/29 09:39:24;;;;;;;4.05;0.90;;;15.70;73.90;;;;;;4975433;28;20031;-77
2022/09/29 09:41:53;;;;;;;2.22;0.82;;;15.50;74.10;;;;;;4976836;28;20023;-77
2022/09/29 09:44:32;;;;;;;1.52;0.75;;;15.30;74.10;;;;;;4992090;28;20117;-77
2022/09/29 09:47:28;;;;;;;5.00;1.00;;;15.30;73.70;;;;;;4991583;28;20497;-78
2022/09/29 09:50:12;;;;;;;1.27;0.80;;;15.50;73.50;;;;;;4979027;28;20031;-78
2022/09/29 09:52:47;;;;;;;2.45;0.70;;;15.70;73.70;;;;;;4977318;28;20079;-77
2022/09/29 09:55:19;;;;;;;1.02;0.80;;;15.80;72.50;;;;;;4976866;28;20043;-76
2022/09/29 09:58:00;;;;;;;2.10;0.60;;;16.10;71.50;;;;;;4977907;28;20094;-76
2022/09/29 10:00:35;;;;;;;2.97;0.50;;;16.30;70.80;;;;;;4980338;28;20026;-76
2022/09/29 10:03:06;;;;;;;2.42;0.75;;;16.30;70.20;;;;;;4980411;28;20038;-77
2022/09/29 10:05:37;;;;;;;2.05;0.52;;;16.40;69.50;;;;;;4995503;28;20464;-76
2022/09/29 10:08:05;;;;;;;3.63;0.65;;;16.30;69.20;;;;;;4995745;28;20027;-77
2022/09/29 10:10:31;;;;;;;1.90;0.60;;;16.30;69.10;;;;;;4984003;28;20499;-77
2022/09/29 10:13:05;;;;;;;2.63;0.60;;;16.20;68.70;;;;;;4993423;28;20480;-77
2022/09/29 10:15:55;;;;;;;1.08;0.50;;;16.00;68.70;;;;;;4995149;28;20034;-76
2022/09/29 10:18:45;;;;;;;2.92;0.80;;;15.80;67.70;;;;;;4980590;28;20069;-76
2022/09/29 10:21:35;;;;;;;2.42;0.50;;;15.80;67.70;;;;;;4980777;28;20019;-77
2022/09/29 10:24:02;;;;;;;0.98;0.50;;;15.90;68.00;;;;;;4997152;28;20037;-77
2022/09/29 10:26:41;;;;;;;2.10;0.60;;;15.90;67.90;;;;;;4998388;28;20026;-76
2022/09/29 10:29:22;;;;;;;0.85;0.47;;;16.00;67.80;;;;;;4999716;28;20053;-77
2022/09/29 10:32:25;;;;;;;2.97;0.40;;;15.90;67.30;;;;;;4986789;28;20413;-77
2022/09/29 10:35:01;;;;;;;0.73;0.50;;;15.90;67.80;;;;;;4992847;28;20027;-76
2022/09/29 10:37:35;;;;;;;0.80;0.60;;;15.80;68.90;;;;;;4999513;28;20022;-78
2022/09/29 10:40:22;;;;;;;4.22;0.80;;;15.80;68.60;;;;;;4984418;28;20066;-77
2022/09/29 10:42:50;;;;;;;4.60;0.80;;;15.80;69.30;;;;;;4979856;28;20050;-76
2022/09/29 10:45:21;;;;;;;1.60;0.60;;;15.80;69.70;;;;;;4980346;28;20409;-77
2022/09/29 10:47:56;;;;;;;2.03;0.45;;;15.80;70.10;;;;;;4980177;28;20066;-77
2022/09/29 10:50:24;;;;;;;1.20;0.40;;;15.80;69.60;;;;;;4988755;28;20031;-77
2022/09/29 10:52:54;;;;;;;2.78;0.43;;;15.80;70.50;;;;;;4996146;28;20077;-77
2022/09/29 10:55:47;;;;;;;4.47;0.70;;;15.90;70.70;;;;;;4979845;28;20054;-77
2022/09/29 10:58:24;;;;;;;1.13;0.60;;;15.90;70.60;;;;;;4979631;28;20030;-77
2022/09/29 11:01:22;;;;;;;5.00;0.57;;;16.00;70.70;;;;;;4979932;28;20097;-77
2022/09/29 11:04:02;;;;;;;0.80;0.60;;;16.00;71.20;;;;;;4977750;28;20122;-77
2022/09/29 11:06:30;;;;;;;2.60;0.65;;;16.10;71.30;;;;;;4979414;28;20559;-76
2022/09/29 11:08:59;;;;;;;2.05;0.65;;;16.00;71.20;;;;;;4979354;28;20018;-77
2022/09/29 11:11:50;;;;;;;2.10;1.02;;;16.10;71.30;;;;;;4997316;28;20026;-77
2022/09/29 11:14:38;;;;;;;1.83;0.68;;;16.00;70.90;;;;;;4995666;28;20023;-77
2022/09/29 11:17:24;;;;;;;2.20;0.65;;;15.90;70.90;;;;;;4979217;28;20034;-77
2022/09/29 11:20:00;;;;;;;2.13;0.75;;;15.80;71.30;;;;;;4979169;28;20018;-77
2022/09/29 11:22:38;;;;;;;1.42;0.90;;;15.80;71.70;;;;;;4984332;28;20032;-77
2022/09/29 11:25:17;;;;;;;3.08;0.80;;;15.70;72.30;;;;;;4979305;28;20460;-77
2022/09/29 11:28:01;;;;;;;1.85;0.85;;;15.80;72.70;;;;;;4977657;28;20038;-77
2022/09/29 11:30:32;;;;;;;3.22;0.70;;;15.80;70.90;;;;;;4979304;28;20036;-77
2022/09/29 11:33:13;;;;;;;1.65;0.63;;;15.80;70.60;;;;;;4978756;28;20034;-77
2022/09/29 11:35:48;;;;;;;2.42;0.85;;;15.70;70.00;;;;;;4978966;28;20030;-77
2022/09/29 11:38:30;;;;;;;2.65;0.90;;;15.70;70.00;;;;;;4979078;28;20034;-77
2022/09/29 11:41:14;;;;;;;0.77;0.50;;;15.60;70.10;;;;;;4979356;28;20031;-77
2022/09/29 11:44:18;;;;;;;1.45;0.60;;;15.50;70.10;;;;;;4978962;28;20043;-77
2022/09/29 11:47:01;;;;;;;1.10;0.80;;;15.50;70.40;;;;;;4978709;28;20027;-77
2022/09/29 11:49:26;;;;;;;3.17;0.50;;;15.60;70.40;;;;;;4978861;28;20023;-77
2022/09/29 11:52:07;;;;;;;2.92;0.60;;;15.60;70.20;;;;;;4977747;28;20533;-81
2022/09/29 11:54:46;;;;;;;1.48;0.90;;;15.70;70.10;;;;;;4976331;28;20031;-77
2022/09/29 11:57:23;;;;;;;0.63;0.43;;;15.70;70.10;;;;;;4977375;28;20019;-76
2022/09/29 12:00:11;;;;;;;1.75;0.60;;;15.80;69.90;;;;;;4992488;28;20035;-76
2022/09/29 12:02:52;;;;;;;3.72;0.80;;;15.80;70.00;;;;;;4992187;28;20114;-79
2022/09/29 12:05:42;;;;;;;2.55;0.95;;;16.00;69.90;;;;;;4977208;28;20435;-77
2022/09/29 12:08:44;;;;;;;2.55;0.98;;;16.10;69.00;;;;;;4977778;28;20022;-78
2022/09/29 12:11:36;;;;;;;2.17;0.70;;;16.20;68.80;;;;;;4986276;28;20030;-79
2022/09/29 12:14:33;;;;;;;1.67;0.80;;;16.20;68.90;;;;;;4996019;28;20042;-80
2022/09/29 12:17:05;;;;;;;2.50;0.90;;;16.20;68.50;;;;;;4993150;28;20477;-83
2022/09/29 12:19:35;;;;;;;1.50;0.80;;;16.10;68.70;;;;;;4992357;28;20026;-83
2022/09/29 12:22:03;;;;;;;1.52;0.80;;;16.00;68.60;;;;;;4979038;28;20150;-83
2022/09/29 12:24:36;;;;;;;1.10;0.40;;;15.90;68.30;;;;;;4988772;28;20019;-83
2022/09/29 12:27:25;;;;;;;0.98;0.55;;;15.90;68.00;;;;;;4978455;28;20083;-78
2022/09/29 12:30:08;;;;;;;4.05;0.75;;;15.90;67.20;;;;;;4978219;28;20106;-83
2022/09/29 12:32:41;;;;;;;4.60;0.47;;;16.00;67.20;;;;;;4977316;28;20513;-83
2022/09/29 12:35:16;;;;;;;3.97;0.70;;;16.10;67.30;;;;;;4979357;28;20022;-84
2022/09/29 12:38:09;;;;;;;1.00;0.32;;;16.20;67.10;;;;;;4992742;28;20031;-84
2022/09/29 12:40:40;;;;;;;0.68;0.45;;;16.30;67.50;;;;;;4978266;28;20518;-84
2022/09/29 12:43:26;;;;;;;1.00;0.40;;;16.50;67.10;;;;;;4978411;28;20105;-85
2022/09/29 12:46:56;;;;;;;0.60;0.40;;;16.60;67.00;;;;;;4977514;28;20449;-82
2022/09/29 12:49:31;;;;;;;0.60;0.50;;;16.60;66.90;;;;;;5013215;28;20053;-81
2022/09/29 12:51:58;;;;;;;1.33;0.52;;;16.50;67.60;;;;;;4957655;28;1153344;-83
2022/09/29 12:54:48;;;;;;;1.77;0.60;;;16.50;66.70;;;;;;4997539;28;20101;-83
2022/09/29 12:57:23;;;;;;;1.00;0.37;;;16.60;66.70;;;;;;4977527;28;20096;-85
2022/09/29 13:00:08;;;;;;;1.40;0.40;;;16.70;65.30;;;;;;4977405;28;20034;-82
2022/09/29 13:03:04;;;;;;;1.65;0.40;;;16.80;65.60;;;;;;4977805;28;20023;-82
2022/09/29 13:05:55;;;;;;;0.60;0.38;;;16.80;64.90;;;;;;4976462;28;20400;-82
2022/09/29 13:08:30;;;;;;;1.60;0.50;;;16.80;64.80;;;;;;4977605;28;20109;-79
2022/09/29 13:11:17;;;;;;;2.53;1.52;;;16.70;64.50;;;;;;4984204;28;20030;-78
2022/09/29 13:14:05;;;;;;;3.15;1.40;;;16.60;65.20;;;;;;4995356;28;20459;-79
2022/09/29 13:16:56;;;;;;;2.22;1.23;;;16.40;66.20;;;;;;4982345;28;20026;-79